createdAt,value
2018-09-03T00:00:02.395Z,56.54
2018-09-03T00:02:31.748Z,56.22
2018-09-03T00:05:00.499Z,56.11
2018-09-03T00:07:29.239Z,56.94
2018-09-03T00:09:57.965Z,56.82
2018-09-03T00:12:26.662Z,56.23
2018-09-03T00:14:55.310Z,57.00
2018-09-03T00:17:23.967Z,56.78
2018-09-03T00:19:52.654Z,56.63
2018-09-03T00:22:21.478Z,57.00
2018-09-03T00:24:50.249Z,57.74
2018-09-03T00:27:19.085Z,56.86
2018-09-03T00:29:47.819Z,57.13
2018-09-03T00:32:21.596Z,56.96
2018-09-03T00:34:55.524Z,57.36
2018-09-03T00:37:29.426Z,57.69
2018-09-03T00:40:03.260Z,57.08
2018-09-03T00:43:40.837Z,56.99
2018-09-03T00:46:14.741Z,56.67
2018-09-03T00:48:43.646Z,56.59
2018-09-03T00:51:12.511Z,56.88
2018-09-03T00:53:41.320Z,57.15
2018-09-03T00:56:10.049Z,56.73
2018-09-03T00:58:38.837Z,57.13
2018-09-03T01:01:07.584Z,57.04
2018-09-03T01:03:36.479Z,57.29
2018-09-03T01:06:05.595Z,57.53
2018-09-03T01:08:34.376Z,56.67
2018-09-03T01:11:03.150Z,57.74
2018-09-03T01:13:31.939Z,57.06
2018-09-03T01:16:00.743Z,57.34
2018-09-03T01:18:29.509Z,57.06
2018-09-03T01:20:58.266Z,57.12
2018-09-03T01:23:26.924Z,57.30
2018-09-03T01:25:55.647Z,57.02
2018-09-03T01:28:24.402Z,56.77
2018-09-03T01:30:53.115Z,55.97
2018-09-03T01:33:21.838Z,56.33
2018-09-03T01:35:50.636Z,56.06
2018-09-03T01:38:19.424Z,56.47
2018-09-03T01:40:48.151Z,55.86
2018-09-03T01:43:16.835Z,56.47
2018-09-03T01:45:45.754Z,57.16
2018-09-03T01:48:14.546Z,56.35
2018-09-03T01:50:43.283Z,57.26
2018-09-03T01:53:12.090Z,56.48
2018-09-03T01:55:40.790Z,57.78
2018-09-03T01:58:09.500Z,57.53
2018-09-03T02:00:38.367Z,57.85
2018-09-03T02:03:07.181Z,57.20
2018-09-03T02:05:35.965Z,57.84
2018-09-03T02:08:04.770Z,57.67
2018-09-03T02:10:33.730Z,57.33
2018-09-03T02:13:02.582Z,57.60
2018-09-03T02:15:31.320Z,57.41
2018-09-03T02:18:00.130Z,57.97
2018-09-03T02:20:28.852Z,57.59
2018-09-03T02:22:57.776Z,58.38
2018-09-03T02:25:26.760Z,58.33
2018-09-03T02:27:55.618Z,57.66
2018-09-03T02:30:24.299Z,58.56
2018-09-03T02:32:53.236Z,58.72
2018-09-03T02:35:21.920Z,58.63
2018-09-03T02:37:51.034Z,58.45
2018-09-03T02:40:19.935Z,58.52
2018-09-03T02:42:48.656Z,59.43
2018-09-03T02:45:17.428Z,59.73
2018-09-03T02:47:46.136Z,59.05
2018-09-03T02:50:14.887Z,59.00
2018-09-03T02:52:43.747Z,59.69
2018-09-03T02:55:12.479Z,59.76
2018-09-03T02:57:41.178Z,59.72
2018-09-03T03:00:10.039Z,60.08
2018-09-03T03:02:38.755Z,59.90
2018-09-03T03:05:07.511Z,60.89
2018-09-03T03:07:36.210Z,61.32
2018-09-03T03:10:05.159Z,60.85
2018-09-03T03:12:33.855Z,60.74
2018-09-03T03:15:02.532Z,60.98
2018-09-03T03:17:31.320Z,61.36
2018-09-03T03:19:59.997Z,61.36
2018-09-03T03:22:28.727Z,60.57
2018-09-03T03:24:57.488Z,60.79
2018-09-03T03:27:26.134Z,61.43
2018-09-03T03:29:54.891Z,61.04
2018-09-03T03:32:23.599Z,61.54
2018-09-03T03:34:52.378Z,61.47
2018-09-03T03:37:21.042Z,61.08
2018-09-03T03:39:49.770Z,61.67
2018-09-03T03:42:18.528Z,61.30
2018-09-03T03:44:47.216Z,61.77
2018-09-03T03:47:15.919Z,61.62
2018-09-03T03:49:45.660Z,61.85
2018-09-03T03:52:14.380Z,62.25
2018-09-03T03:54:43.093Z,62.04
2018-09-03T03:57:11.711Z,62.22
2018-09-03T03:59:40.395Z,61.84
2018-09-03T04:02:09.312Z,62.57
2018-09-03T04:04:38.028Z,62.86
2018-09-03T04:07:06.770Z,62.65
2018-09-03T04:09:35.446Z,62.31
2018-09-03T04:12:04.149Z,62.00
2018-09-03T04:14:32.898Z,60.84
2018-09-03T04:17:01.587Z,61.16
2018-09-03T04:19:30.545Z,60.73
2018-09-03T04:21:59.426Z,60.75
2018-09-03T04:24:28.271Z,60.23
2018-09-03T04:26:57.168Z,60.18
2018-09-03T04:29:25.951Z,60.04
2018-09-03T04:31:54.811Z,59.97
2018-09-03T04:34:23.609Z,60.46
2018-09-03T04:36:52.505Z,60.95
2018-09-03T04:39:21.317Z,60.76
2018-09-03T04:41:51.010Z,61.27
2018-09-03T04:44:19.870Z,60.88
2018-09-03T04:46:48.683Z,60.65
2018-09-03T04:49:17.510Z,59.86
2018-09-03T04:51:46.220Z,60.07
2018-09-03T04:54:14.986Z,59.16
2018-09-03T04:56:43.781Z,58.90
2018-09-03T04:59:12.596Z,59.12
2018-09-03T05:01:41.475Z,59.58
2018-09-03T05:04:10.217Z,60.03
2018-09-03T05:06:38.980Z,60.69
2018-09-03T05:09:07.791Z,60.70
2018-09-03T05:11:36.845Z,60.11
2018-09-03T05:14:05.848Z,60.73
2018-09-03T05:16:34.733Z,59.58
2018-09-03T05:19:03.493Z,59.25
2018-09-03T05:21:32.331Z,58.04
2018-09-03T05:24:01.100Z,57.44
2018-09-03T05:26:29.932Z,56.21
2018-09-03T05:28:58.630Z,55.46
2018-09-03T05:31:27.367Z,54.86
2018-09-03T05:33:56.187Z,54.00
2018-09-03T05:36:24.903Z,53.28
2018-09-03T05:38:53.607Z,53.51
2018-09-03T05:41:22.360Z,52.68
2018-09-03T05:43:51.211Z,54.72
2018-09-03T05:46:19.998Z,54.67
2018-09-03T05:48:48.810Z,55.16
2018-09-03T05:51:17.644Z,55.52
2018-09-03T05:53:46.441Z,55.87
2018-09-03T05:56:15.308Z,56.49
2018-09-03T05:58:44.141Z,55.75
2018-09-03T06:01:13.004Z,56.05
2018-09-03T06:03:41.799Z,55.34
2018-09-03T06:06:10.685Z,54.27
2018-09-03T06:08:39.453Z,54.46
2018-09-03T06:11:08.431Z,53.79
2018-09-03T06:13:37.754Z,52.80
2018-09-03T06:16:06.764Z,54.10
2018-09-03T06:18:35.642Z,53.95
2018-09-03T06:21:04.472Z,55.18
2018-09-03T06:23:33.294Z,54.76
2018-09-03T06:26:02.122Z,54.33
2018-09-03T06:28:30.849Z,55.13
2018-09-03T06:30:59.694Z,54.64
2018-09-03T06:33:28.488Z,55.24
2018-09-03T06:35:57.323Z,55.03
2018-09-03T06:38:26.184Z,54.50
2018-09-03T06:40:54.992Z,54.93
2018-09-03T06:43:24.091Z,54.30
2018-09-03T06:45:52.881Z,51.82
2018-09-03T06:48:21.687Z,49.17
2018-09-03T06:50:50.471Z,48.00
2018-09-03T06:53:19.361Z,47.54
2018-09-03T06:55:48.124Z,48.22
2018-09-03T06:58:16.878Z,49.27
2018-09-03T07:00:45.712Z,48.75
2018-09-03T07:03:14.441Z,49.01
2018-09-03T07:05:43.251Z,47.29
2018-09-03T07:08:12.100Z,46.62
2018-09-03T07:10:40.974Z,45.49
2018-09-03T07:13:09.884Z,45.07
2018-09-03T07:15:38.804Z,45.18
2018-09-03T07:18:07.684Z,46.17
2018-09-03T07:20:36.503Z,44.82
2018-09-03T07:23:05.482Z,45.85
2018-09-03T07:25:34.279Z,43.42
2018-09-03T07:28:03.003Z,43.02
2018-09-03T07:30:31.856Z,44.51
2018-09-03T07:33:00.524Z,45.00
2018-09-03T07:35:29.214Z,44.87
2018-09-03T07:37:58.220Z,46.07
2018-09-03T07:40:27.015Z,45.17
2018-09-03T07:42:56.457Z,44.54
2018-09-03T07:45:25.302Z,45.29
2018-09-03T07:47:54.013Z,44.96
2018-09-03T07:50:22.674Z,45.49
2018-09-03T07:52:51.407Z,46.22
2018-09-03T07:55:20.113Z,43.88
2018-09-03T07:57:48.839Z,43.38
2018-09-03T08:00:20.105Z,43.16
2018-09-03T08:02:48.791Z,41.56
2018-09-03T08:05:17.638Z,43.33
2018-09-03T08:07:46.300Z,44.76
2018-09-03T08:10:15.000Z,44.59
2018-09-03T08:12:43.799Z,44.15
2018-09-03T08:15:13.131Z,44.56
2018-09-03T08:17:41.774Z,43.52
2018-09-03T08:20:10.534Z,41.25
2018-09-03T08:22:39.216Z,39.87
2018-09-03T08:25:08.012Z,37.86
2018-09-03T08:27:36.748Z,37.11
2018-09-03T08:30:07.075Z,35.70
2018-09-03T08:32:35.761Z,35.67
2018-09-03T08:35:04.689Z,36.78
2018-09-03T08:37:33.700Z,38.01
2018-09-03T08:40:02.535Z,37.69
2018-09-03T08:42:31.341Z,35.90
2018-09-03T08:45:00.160Z,35.59
2018-09-03T08:47:29.010Z,34.52
2018-09-03T08:49:57.844Z,33.26
2018-09-03T08:52:26.569Z,33.66
2018-09-03T08:54:55.478Z,34.31
2018-09-03T08:57:24.358Z,34.67
2018-09-03T08:59:53.133Z,33.64
2018-09-03T09:02:21.925Z,33.88
2018-09-03T09:04:50.622Z,34.35
2018-09-03T09:07:19.588Z,32.61
2018-09-03T09:09:48.489Z,34.34
2018-09-03T09:12:17.286Z,33.19
2018-09-03T09:14:46.026Z,32.51
2018-09-03T09:17:14.897Z,32.68
2018-09-03T09:19:43.719Z,31.50
2018-09-03T09:22:12.377Z,30.87
2018-09-03T09:24:41.029Z,30.96
2018-09-03T09:27:09.782Z,29.26
2018-09-03T09:29:38.465Z,28.43
2018-09-03T09:32:07.266Z,29.23
2018-09-03T09:34:35.942Z,29.86
2018-09-03T09:37:04.739Z,29.36
2018-09-03T09:39:33.466Z,29.91
2018-09-03T09:42:02.222Z,30.53
2018-09-03T09:44:30.866Z,29.72
2018-09-03T09:46:59.510Z,29.74
2018-09-03T09:49:28.242Z,30.20
2018-09-03T09:51:57.005Z,28.90
2018-09-03T09:54:25.738Z,29.07
2018-09-03T09:56:54.431Z,28.24
2018-09-03T09:59:23.174Z,29.25
2018-09-03T10:01:51.854Z,28.84
2018-09-03T10:04:20.642Z,28.46
2018-09-03T10:06:49.282Z,28.55
2018-09-03T10:09:17.965Z,28.14
2018-09-03T10:11:46.655Z,27.11
2018-09-03T10:14:15.291Z,27.08
2018-09-03T10:16:43.948Z,26.29
2018-09-03T10:19:12.752Z,26.77
2018-09-03T10:21:41.408Z,27.01
2018-09-03T10:24:10.035Z,26.33
2018-09-03T10:26:38.775Z,26.62
2018-09-03T10:29:07.514Z,26.75
2018-09-03T10:31:36.166Z,26.88
2018-09-03T10:34:04.960Z,26.98
2018-09-03T10:36:33.654Z,26.96
2018-09-03T10:39:02.373Z,26.04
2018-09-03T10:41:31.054Z,26.65
2018-09-03T10:43:59.752Z,28.45
2018-09-03T10:46:28.482Z,29.15
2018-09-03T10:48:57.199Z,30.17
2018-09-03T10:51:25.861Z,30.36
2018-09-03T10:53:54.512Z,31.44
2018-09-03T10:56:23.157Z,31.78
2018-09-03T10:58:51.791Z,32.06
2018-09-03T11:01:20.430Z,32.13
2018-09-03T11:03:49.050Z,32.95
2018-09-03T11:06:18.018Z,32.17
2018-09-03T11:08:46.678Z,33.21
2018-09-03T11:11:15.405Z,32.25
2018-09-03T11:13:44.057Z,32.22
2018-09-03T11:16:12.689Z,32.13
2018-09-03T11:18:41.333Z,32.14
2018-09-03T11:21:10.120Z,33.43
2018-09-03T11:23:38.687Z,32.76
2018-09-03T11:26:07.498Z,32.75
2018-09-03T11:28:36.220Z,33.52
2018-09-03T11:31:04.958Z,33.07
2018-09-03T11:33:33.648Z,32.96
2018-09-03T11:36:02.329Z,34.54
2018-09-03T11:38:30.983Z,32.18
2018-09-03T11:40:59.680Z,32.33
2018-09-03T11:43:28.262Z,32.98
2018-09-03T11:45:56.945Z,33.22
2018-09-03T11:48:25.578Z,33.47
2018-09-03T11:50:54.294Z,33.61
2018-09-03T11:53:22.911Z,33.88
2018-09-03T11:55:51.594Z,33.27
2018-09-03T11:58:20.378Z,33.25
2018-09-03T12:00:49.070Z,34.47
2018-09-03T12:03:17.737Z,36.32
2018-09-03T12:05:46.564Z,39.76
2018-09-03T12:08:15.216Z,42.04
2018-09-03T12:10:43.872Z,44.85
2018-09-03T12:13:12.568Z,45.80
2018-09-03T12:16:14.538Z,49.13
2018-09-03T12:18:44.043Z,51.68
2018-09-03T12:21:13.634Z,52.62
2018-09-03T12:23:43.119Z,51.01
2018-09-03T12:26:11.907Z,51.36
2018-09-03T12:28:40.574Z,51.57
2018-09-03T12:31:09.711Z,51.29
2018-09-03T12:33:38.564Z,49.46
2018-09-03T12:36:07.355Z,49.21
2018-09-03T12:38:36.095Z,50.34
2018-09-03T12:41:05.764Z,53.32
2018-09-03T12:43:34.682Z,58.72
2018-09-03T12:46:05.643Z,63.19
2018-09-03T12:48:34.392Z,66.65
2018-09-03T12:51:04.172Z,69.10
2018-09-03T12:53:33.310Z,69.53
2018-09-03T12:56:02.236Z,74.06
2018-09-03T12:58:30.935Z,74.80
2018-09-03T13:00:59.680Z,82.06
2018-09-03T13:03:28.387Z,86.64
2018-09-03T13:05:57.085Z,90.17
2018-09-03T13:08:25.803Z,92.21
2018-09-03T13:10:54.518Z,92.81
2018-09-03T13:13:23.230Z,92.69
2018-09-03T13:15:51.898Z,94.87
2018-09-03T13:18:20.583Z,97.63
2018-09-03T13:20:49.235Z,97.80
2018-09-03T13:23:18.033Z,98.10
2018-09-03T13:25:46.743Z,97.55
2018-09-03T13:28:15.443Z,90.24
2018-09-03T13:30:44.183Z,90.37
2018-09-03T13:33:12.840Z,87.76
2018-09-03T13:35:41.659Z,85.56
2018-09-03T13:38:10.436Z,83.36
2018-09-03T13:40:39.750Z,79.78
2018-09-03T13:43:08.457Z,78.28
2018-09-03T13:45:37.162Z,79.29
2018-09-03T13:48:05.883Z,77.10
2018-09-03T13:50:34.594Z,72.63
2018-09-03T13:53:03.379Z,69.85
2018-09-03T13:55:32.042Z,69.59
2018-09-03T13:58:00.762Z,68.90
2018-09-03T14:00:29.549Z,68.54
2018-09-03T14:02:58.237Z,68.93
2018-09-03T14:05:26.972Z,68.39
2018-09-03T14:07:55.616Z,69.14
2018-09-03T14:10:24.326Z,71.00
2018-09-03T14:12:53.114Z,72.09
2018-09-03T14:15:21.873Z,70.21
2018-09-03T14:17:50.568Z,70.31
2018-09-03T14:20:19.248Z,69.01
2018-09-03T14:22:47.937Z,70.39
2018-09-03T14:25:16.636Z,69.99
2018-09-03T14:27:45.287Z,69.99
2018-09-03T14:30:13.961Z,70.18
2018-09-03T14:32:42.700Z,69.06
2018-09-03T14:35:11.396Z,68.72
2018-09-03T14:37:40.091Z,69.42
2018-09-03T14:40:08.914Z,69.68
2018-09-03T14:42:37.824Z,68.82
2018-09-03T14:45:06.801Z,67.30
2018-09-03T14:47:35.466Z,66.77
2018-09-03T14:50:04.402Z,65.71
2018-09-03T14:52:33.151Z,64.77
2018-09-03T14:55:01.971Z,64.79
2018-09-03T14:57:31.725Z,64.05
2018-09-03T15:00:00.573Z,62.84
2018-09-03T15:02:29.397Z,62.19
2018-09-03T15:04:58.080Z,62.90
2018-09-03T15:07:26.770Z,61.65
2018-09-03T15:09:55.500Z,60.88
2018-09-03T15:12:24.190Z,60.43
2018-09-03T15:14:52.971Z,60.77
2018-09-03T15:17:21.674Z,62.98
2018-09-03T15:19:50.395Z,62.26
2018-09-03T15:22:19.252Z,62.07
2018-09-03T15:24:48.052Z,62.55
2018-09-03T15:27:16.847Z,62.29
2018-09-03T15:29:45.621Z,63.94
2018-09-03T15:32:14.414Z,62.15
2018-09-03T15:34:43.095Z,61.66
2018-09-03T15:37:11.755Z,62.07
2018-09-03T15:39:40.483Z,61.85
2018-09-03T15:42:09.403Z,62.67
2018-09-03T15:44:38.144Z,62.55
2018-09-03T15:47:07.051Z,62.42
2018-09-03T15:49:35.874Z,62.16
2018-09-03T15:52:04.690Z,62.38
2018-09-03T15:54:34.115Z,62.64
2018-09-03T15:57:02.934Z,62.72
2018-09-03T15:59:31.673Z,63.06
2018-09-03T16:02:00.397Z,62.33
2018-09-03T16:04:29.079Z,61.92
2018-09-03T16:06:57.798Z,61.99
2018-09-03T16:09:26.456Z,60.88
2018-09-03T16:11:55.114Z,61.43
2018-09-03T16:14:23.786Z,60.42
2018-09-03T16:16:52.514Z,61.24
2018-09-03T16:19:21.215Z,61.24
2018-09-03T16:21:49.888Z,62.09
2018-09-03T16:24:18.582Z,63.57
2018-09-03T16:26:47.249Z,65.17
2018-09-03T16:29:15.937Z,64.91
2018-09-03T16:31:44.635Z,63.94
2018-09-03T16:34:13.296Z,63.24
2018-09-03T16:36:41.979Z,63.76
2018-09-03T16:39:10.665Z,65.15
2018-09-03T16:41:39.341Z,65.01
2018-09-03T16:44:08.043Z,65.75
2018-09-03T16:46:36.722Z,68.69
2018-09-03T16:49:05.590Z,69.67
2018-09-03T16:51:34.230Z,71.79
2018-09-03T16:54:02.878Z,71.79
2018-09-03T16:56:31.512Z,72.95
2018-09-03T16:59:00.170Z,72.61
2018-09-03T17:01:29.071Z,72.25
2018-09-03T17:03:57.638Z,72.75
2018-09-03T17:06:26.296Z,75.24
2018-09-03T17:08:54.949Z,75.92
2018-09-03T17:11:23.624Z,77.60
2018-09-03T17:13:52.287Z,78.37
2018-09-03T17:16:20.974Z,78.70
2018-09-03T17:18:49.701Z,81.21
2018-09-03T17:21:18.389Z,81.98
2018-09-03T17:23:47.050Z,83.17
2018-09-03T17:26:15.747Z,84.11
2018-09-03T17:28:44.536Z,83.82
2018-09-03T17:31:13.229Z,83.51
2018-09-03T17:33:41.961Z,83.47
2018-09-03T17:36:10.645Z,82.67
2018-09-03T17:38:39.366Z,81.50
2018-09-03T17:41:08.089Z,82.04
2018-09-03T17:43:36.737Z,82.53
2018-09-03T17:46:05.506Z,81.63
2018-09-03T17:48:34.367Z,81.69
2018-09-03T17:51:03.094Z,81.80
2018-09-03T17:53:31.748Z,81.62
2018-09-03T17:56:00.477Z,81.53
2018-09-03T17:58:29.159Z,81.03
2018-09-03T18:00:57.893Z,81.43
2018-09-03T18:03:26.665Z,81.27
2018-09-03T18:05:55.396Z,81.96
2018-09-03T18:08:24.270Z,82.02
2018-09-03T18:10:52.810Z,81.84
2018-09-03T18:13:21.491Z,82.28
2018-09-03T18:15:50.154Z,82.08
2018-09-03T18:18:18.807Z,81.67
2018-09-03T18:20:47.463Z,82.86
2018-09-03T18:23:16.083Z,82.37
2018-09-03T18:25:44.785Z,82.31
2018-09-03T18:28:13.426Z,81.52
2018-09-03T18:30:42.099Z,81.77
2018-09-03T18:33:10.791Z,81.65
2018-09-03T18:35:39.467Z,81.69
2018-09-03T18:38:08.165Z,80.73
2018-09-03T18:40:36.863Z,79.32
2018-09-03T18:43:05.564Z,79.97
2018-09-03T18:45:34.234Z,82.23
2018-09-03T18:48:03.059Z,83.64
2018-09-03T18:50:31.763Z,83.64
2018-09-03T18:53:00.582Z,83.44
2018-09-03T18:55:29.377Z,83.72
2018-09-03T18:57:58.136Z,82.75
2018-09-03T19:00:26.947Z,81.26
2018-09-03T19:02:55.663Z,80.14
2018-09-03T19:05:24.405Z,80.71
2018-09-03T19:07:53.023Z,82.22
2018-09-03T19:10:21.745Z,81.90
2018-09-03T19:12:50.474Z,82.27
2018-09-03T19:15:19.147Z,80.84
2018-09-03T19:17:47.779Z,80.40
2018-09-03T19:20:16.475Z,80.45
2018-09-03T19:22:45.306Z,80.42
2018-09-03T19:25:13.975Z,79.98
2018-09-03T19:27:42.658Z,82.06
2018-09-03T19:30:11.389Z,82.39
2018-09-03T19:32:40.162Z,84.30
2018-09-03T19:35:08.834Z,86.16
2018-09-03T19:37:37.566Z,87.54
2018-09-03T19:40:06.375Z,88.65
2018-09-03T19:42:35.213Z,89.03
2018-09-03T19:45:03.859Z,89.35
2018-09-03T19:47:32.569Z,88.95
2018-09-03T19:50:01.333Z,89.63
2018-09-03T19:52:29.981Z,90.13
2018-09-03T19:54:58.730Z,88.75
2018-09-03T19:57:27.465Z,89.94
2018-09-03T19:59:56.166Z,90.37
2018-09-03T20:02:24.795Z,90.73
2018-09-03T20:04:53.546Z,91.01
2018-09-03T20:07:22.235Z,90.47
2018-09-03T20:09:50.926Z,91.53
2018-09-03T20:12:19.830Z,91.91
2018-09-03T20:14:48.684Z,92.93
2018-09-03T20:17:17.401Z,94.34
2018-09-03T20:19:45.996Z,93.65
2018-09-03T20:22:16.721Z,94.04
2018-09-03T20:24:45.426Z,94.37
2018-09-03T20:27:14.387Z,95.68
2018-09-03T20:29:44.027Z,95.40
2018-09-03T20:32:12.913Z,95.51
2018-09-03T20:34:42.201Z,96.10
2018-09-03T20:37:11.215Z,95.63
2018-09-03T20:39:40.147Z,95.34
2018-09-03T20:42:09.504Z,94.26
2018-09-03T20:44:38.198Z,94.01
2018-09-03T20:47:06.871Z,93.55
2018-09-03T20:49:35.541Z,94.50
2018-09-03T20:52:04.242Z,100.00
2018-09-03T20:54:33.014Z,100.00
2018-09-03T20:57:01.689Z,100.00
2018-09-03T20:59:30.363Z,100.00
2018-09-03T21:01:59.050Z,100.00
2018-09-03T21:04:27.757Z,100.00
2018-09-03T21:06:56.473Z,100.00
2018-09-03T21:09:25.147Z,100.00
2018-09-03T21:11:53.975Z,100.00
2018-09-03T21:14:22.984Z,100.00
2018-09-03T21:16:51.870Z,100.00
2018-09-03T21:19:22.268Z,100.00
2018-09-03T21:21:52.184Z,100.00
2018-09-03T21:24:20.965Z,100.00
2018-09-03T21:26:49.850Z,100.00
2018-09-03T21:29:18.613Z,100.00
2018-09-03T21:31:47.351Z,100.00
2018-09-03T21:34:16.099Z,100.00
2018-09-03T21:36:44.802Z,100.00
2018-09-03T21:39:13.576Z,100.00
2018-09-03T21:41:42.335Z,100.00
2018-09-03T21:44:11.057Z,100.00
2018-09-03T21:46:39.950Z,100.00
2018-09-03T21:49:08.692Z,100.00
2018-09-03T21:51:37.454Z,100.00
2018-09-03T21:54:06.392Z,100.00
2018-09-03T21:56:35.191Z,100.00
2018-09-03T21:59:03.968Z,100.00
2018-09-03T22:01:32.789Z,100.00
2018-09-03T22:04:01.597Z,100.00
2018-09-03T22:06:31.995Z,100.00
2018-09-03T22:09:01.419Z,100.00
2018-09-03T22:11:30.225Z,100.00
2018-09-03T22:13:59.128Z,100.00
2018-09-03T22:16:27.944Z,100.00
2018-09-03T22:18:56.638Z,100.00
2018-09-03T22:21:25.370Z,100.00
2018-09-03T22:23:54.082Z,100.00
2018-09-03T22:26:22.752Z,100.00
2018-09-03T22:28:51.488Z,100.00
2018-09-03T22:31:20.262Z,100.00
2018-09-03T22:33:49.052Z,100.00
2018-09-03T22:36:17.724Z,100.00
2018-09-03T22:38:46.555Z,100.00
2018-09-03T22:41:15.247Z,100.00
2018-09-03T22:43:44.116Z,100.00
2018-09-03T22:46:13.032Z,100.00
2018-09-03T22:48:41.798Z,100.00
2018-09-03T22:51:10.513Z,100.00
2018-09-03T22:53:39.319Z,100.00
2018-09-03T22:56:08.215Z,100.00
2018-09-03T22:58:36.990Z,100.00
2018-09-03T23:01:05.792Z,100.00
2018-09-03T23:03:34.560Z,100.00
2018-09-03T23:06:03.335Z,100.00
2018-09-03T23:08:32.092Z,100.00
2018-09-03T23:11:00.781Z,100.00
2018-09-03T23:13:29.539Z,100.00
2018-09-03T23:15:58.333Z,100.00
2018-09-03T23:18:27.063Z,100.00
2018-09-03T23:20:56.026Z,100.00
2018-09-03T23:23:24.872Z,100.00
2018-09-03T23:25:53.586Z,100.00
2018-09-03T23:28:22.632Z,100.00
2018-09-03T23:30:51.375Z,100.00
2018-09-03T23:33:20.172Z,100.00
2018-09-03T23:35:49.125Z,100.00
2018-09-03T23:38:17.903Z,100.00
2018-09-03T23:40:46.641Z,100.00
2018-09-03T23:43:15.348Z,100.00
2018-09-03T23:45:44.182Z,100.00
2018-09-03T23:48:12.932Z,100.00
2018-09-03T23:50:41.782Z,100.00
2018-09-03T23:53:10.623Z,100.00
2018-09-03T23:55:39.480Z,100.00
2018-09-03T23:58:08.256Z,100.00
